Abuja, Nigeria
Current Conditions -  °F | °C
As of 7:00 PM on Monday 20 Oct 2014 (Local Time) from DBBB Reporting Station
Scattered Clouds Scattered Clouds  
Wind Chill: 81°   Ceiling: Unl
Heat Index: 88°   Visibility: 6mi
Dew Point: 79°   Wind: 9mph
Humidity: 94%   Direction: 200°SSW
Pressure: 29.83"   Gusts: NA
Location:  9.18°N, 7.17°E
Report Text: DBBB 201800Z 20008KT 9999 FEW012 FEW025CB SCT120 27/26 Q1010 TEMPO TS
Loading
Personal Weather Stations






























Interactive Weather Map
Tropical Storm Tracking
New forecast layout! Learn more

10-Day Weather Forecast

Advertisements
Track Severe Weather on mobile